sensor_id;sensor_type;location;lat;lon;timestamp;P1;durP1;ratioP1;P2;durP2;ratioP2
19179;SDS011;9722;48.754;8.868;2024-02-28T00:00:24;11.43;;;10.33;;
19179;SDS011;9722;48.754;8.868;2024-02-28T00:03:45;12.30;;;11.00;;
19179;SDS011;9722;48.754;8.868;2024-02-28T00:07:06;11.60;;;10.37;;
19179;SDS011;9722;48.754;8.868;2024-02-28T00:10:27;11.60;;;10.30;;
19179;SDS011;9722;48.754;8.868;2024-02-28T00:13:47;13.87;;;11.97;;
19179;SDS011;9722;48.754;8.868;2024-02-28T00:17:08;11.50;;;10.33;;
19179;SDS011;9722;48.754;8.868;2024-02-28T00:20:28;13.10;;;10.53;;
19179;SDS011;9722;48.754;8.868;2024-02-28T00:23:49;13.40;;;10.73;;
19179;SDS011;9722;48.754;8.868;2024-02-28T00:27:10;16.37;;;10.37;;
19179;SDS011;9722;48.754;8.868;2024-02-28T00:30:30;11.63;;;10.53;;
19179;SDS011;9722;48.754;8.868;2024-02-28T00:33:52;11.87;;;10.67;;
19179;SDS011;9722;48.754;8.868;2024-02-28T00:37:13;12.57;;;11.27;;
19179;SDS011;9722;48.754;8.868;2024-02-28T00:40:33;13.23;;;11.80;;
19179;SDS011;9722;48.754;8.868;2024-02-28T00:43:54;12.97;;;11.60;;
19179;SDS011;9722;48.754;8.868;2024-02-28T00:47:14;12.17;;;10.83;;
19179;SDS011;9722;48.754;8.868;2024-02-28T00:50:35;10.77;;;9.67;;
19179;SDS011;9722;48.754;8.868;2024-02-28T00:53:55;12.40;;;10.53;;
19179;SDS011;9722;48.754;8.868;2024-02-28T00:57:16;12.90;;;10.80;;
19179;SDS011;9722;48.754;8.868;2024-02-28T01:00:37;11.20;;;10.20;;
19179;SDS011;9722;48.754;8.868;2024-02-28T01:03:57;12.07;;;10.87;;
19179;SDS011;9722;48.754;8.868;2024-02-28T01:07:18;12.53;;;10.93;;
19179;SDS011;9722;48.754;8.868;2024-02-28T01:10:38;12.67;;;11.23;;
19179;SDS011;9722;48.754;8.868;2024-02-28T01:13:59;13.43;;;10.13;;
19179;SDS011;9722;48.754;8.868;2024-02-28T01:17:19;14.80;;;11.27;;
19179;SDS011;9722;48.754;8.868;2024-02-28T01:20:40;13.77;;;11.47;;
19179;SDS011;9722;48.754;8.868;2024-02-28T01:24:00;13.27;;;11.97;;
19179;SDS011;9722;48.754;8.868;2024-02-28T01:27:21;14.37;;;11.50;;
19179;SDS011;9722;48.754;8.868;2024-02-28T01:30:41;13.03;;;11.57;;
19179;SDS011;9722;48.754;8.868;2024-02-28T01:34:02;12.33;;;10.93;;
19179;SDS011;9722;48.754;8.868;2024-02-28T01:37:22;11.03;;;10.03;;
19179;SDS011;9722;48.754;8.868;2024-02-28T01:40:46;11.37;;;10.17;;
19179;SDS011;9722;48.754;8.868;2024-02-28T01:44:06;12.77;;;10.67;;
19179;SDS011;9722;48.754;8.868;2024-02-28T01:47:27;11.43;;;9.27;;
19179;SDS011;9722;48.754;8.868;2024-02-28T01:50:47;12.60;;;10.27;;
19179;SDS011;9722;48.754;8.868;2024-02-28T01:54:08;12.80;;;10.97;;
19179;SDS011;9722;48.754;8.868;2024-02-28T01:57:29;11.50;;;10.27;;
19179;SDS011;9722;48.754;8.868;2024-02-28T02:00:49;10.40;;;9.40;;
19179;SDS011;9722;48.754;8.868;2024-02-28T02:04:11;13.33;;;10.17;;
19179;SDS011;9722;48.754;8.868;2024-02-28T02:07:32;14.60;;;10.13;;
19179;SDS011;9722;48.754;8.868;2024-02-28T02:10:52;11.40;;;10.00;;
19179;SDS011;9722;48.754;8.868;2024-02-28T02:14:13;11.57;;;10.47;;
19179;SDS011;9722;48.754;8.868;2024-02-28T02:17:33;11.57;;;10.47;;
19179;SDS011;9722;48.754;8.868;2024-02-28T02:20:54;12.40;;;10.27;;
19179;SDS011;9722;48.754;8.868;2024-02-28T02:24:22;12.80;;;10.77;;
19179;SDS011;9722;48.754;8.868;2024-02-28T02:27:42;11.43;;;10.27;;
19179;SDS011;9722;48.754;8.868;2024-02-28T02:31:03;11.63;;;10.43;;
19179;SDS011;9722;48.754;8.868;2024-02-28T02:34:24;12.73;;;11.30;;
19179;SDS011;9722;48.754;8.868;2024-02-28T02:37:44;11.50;;;10.40;;
19179;SDS011;9722;48.754;8.868;2024-02-28T02:41:08;14.20;;;11.20;;
19179;SDS011;9722;48.754;8.868;2024-02-28T02:44:28;12.77;;;11.57;;
19179;SDS011;9722;48.754;8.868;2024-02-28T02:47:49;13.37;;;12.03;;
19179;SDS011;9722;48.754;8.868;2024-02-28T02:51:09;14.23;;;12.40;;
19179;SDS011;9722;48.754;8.868;2024-02-28T02:54:30;13.60;;;11.47;;
19179;SDS011;9722;48.754;8.868;2024-02-28T02:57:50;13.87;;;11.90;;
19179;SDS011;9722;48.754;8.868;2024-02-28T03:01:11;13.00;;;11.70;;
19179;SDS011;9722;48.754;8.868;2024-02-28T03:04:31;14.53;;;12.50;;
19179;SDS011;9722;48.754;8.868;2024-02-28T03:07:52;15.77;;;13.10;;
19179;SDS011;9722;48.754;8.868;2024-02-28T03:11:12;13.80;;;12.20;;
19179;SDS011;9722;48.754;8.868;2024-02-28T03:14:34;15.13;;;13.33;;
19179;SDS011;9722;48.754;8.868;2024-02-28T03:17:55;13.97;;;12.57;;
19179;SDS011;9722;48.754;8.868;2024-02-28T03:21:16;13.43;;;12.20;;
19179;SDS011;9722;48.754;8.868;2024-02-28T03:24:37;14.23;;;12.83;;
19179;SDS011;9722;48.754;8.868;2024-02-28T03:27:57;15.77;;;12.87;;
19179;SDS011;9722;48.754;8.868;2024-02-28T03:31:19;17.63;;;13.13;;
19179;SDS011;9722;48.754;8.868;2024-02-28T03:34:39;17.37;;;12.97;;
19179;SDS011;9722;48.754;8.868;2024-02-28T03:38:00;15.67;;;13.13;;
19179;SDS011;9722;48.754;8.868;2024-02-28T03:41:21;15.07;;;13.27;;
19179;SDS011;9722;48.754;8.868;2024-02-28T03:44:42;14.07;;;12.50;;
19179;SDS011;9722;48.754;8.868;2024-02-28T03:48:03;14.00;;;12.60;;
19179;SDS011;9722;48.754;8.868;2024-02-28T03:51:24;16.20;;;13.70;;
19179;SDS011;9722;48.754;8.868;2024-02-28T03:54:44;18.53;;;14.37;;
19179;SDS011;9722;48.754;8.868;2024-02-28T03:58:05;15.40;;;13.73;;
19179;SDS011;9722;48.754;8.868;2024-02-28T04:01:28;15.43;;;13.30;;
19179;SDS011;9722;48.754;8.868;2024-02-28T04:04:49;16.60;;;14.37;;
19179;SDS011;9722;48.754;8.868;2024-02-28T04:08:09;14.47;;;12.97;;
19179;SDS011;9722;48.754;8.868;2024-02-28T04:11:30;16.60;;;14.03;;
19179;SDS011;9722;48.754;8.868;2024-02-28T04:14:50;14.47;;;12.70;;
19179;SDS011;9722;48.754;8.868;2024-02-28T04:18:11;15.80;;;13.67;;
19179;SDS011;9722;48.754;8.868;2024-02-28T04:21:31;19.03;;;13.87;;
19179;SDS011;9722;48.754;8.868;2024-02-28T04:24:52;15.90;;;13.57;;
19179;SDS011;9722;48.754;8.868;2024-02-28T04:28:12;15.57;;;13.43;;
19179;SDS011;9722;48.754;8.868;2024-02-28T04:31:33;14.53;;;13.10;;
19179;SDS011;9722;48.754;8.868;2024-02-28T04:34:54;15.03;;;13.43;;
19179;SDS011;9722;48.754;8.868;2024-02-28T04:38:14;16.57;;;13.43;;
19179;SDS011;9722;48.754;8.868;2024-02-28T04:41:35;15.83;;;14.17;;
19179;SDS011;9722;48.754;8.868;2024-02-28T04:44:55;20.50;;;14.13;;
19179;SDS011;9722;48.754;8.868;2024-02-28T04:48:16;15.53;;;14.03;;
19179;SDS011;9722;48.754;8.868;2024-02-28T04:51:36;17.27;;;14.67;;
19179;SDS011;9722;48.754;8.868;2024-02-28T04:54:57;14.70;;;13.10;;
19179;SDS011;9722;48.754;8.868;2024-02-28T04:58:17;15.93;;;14.20;;
19179;SDS011;9722;48.754;8.868;2024-02-28T05:01:38;16.37;;;14.67;;
19179;SDS011;9722;48.754;8.868;2024-02-28T05:05:01;17.03;;;14.37;;
19179;SDS011;9722;48.754;8.868;2024-02-28T05:08:22;17.27;;;14.57;;
19179;SDS011;9722;48.754;8.868;2024-02-28T05:11:44;16.37;;;14.60;;
19179;SDS011;9722;48.754;8.868;2024-02-28T05:15:05;17.43;;;15.53;;
19179;SDS011;9722;48.754;8.868;2024-02-28T05:18:26;18.37;;;14.93;;
19179;SDS011;9722;48.754;8.868;2024-02-28T05:21:47;18.03;;;15.10;;
19179;SDS011;9722;48.754;8.868;2024-02-28T05:25:08;16.23;;;14.53;;
19179;SDS011;9722;48.754;8.868;2024-02-28T05:28:29;16.03;;;14.23;;
19179;SDS011;9722;48.754;8.868;2024-02-28T05:31:50;16.40;;;14.30;;
19179;SDS011;9722;48.754;8.868;2024-02-28T05:35:10;18.00;;;15.13;;
19179;SDS011;9722;48.754;8.868;2024-02-28T05:38:31;15.70;;;13.90;;
19179;SDS011;9722;48.754;8.868;2024-02-28T05:41:52;21.67;;;16.10;;
19179;SDS011;9722;48.754;8.868;2024-02-28T05:45:14;16.03;;;13.97;;
19179;SDS011;9722;48.754;8.868;2024-02-28T05:48:34;15.67;;;13.80;;
19179;SDS011;9722;48.754;8.868;2024-02-28T05:51:55;17.07;;;13.97;;
19179;SDS011;9722;48.754;8.868;2024-02-28T05:55:16;17.83;;;15.80;;
19179;SDS011;9722;48.754;8.868;2024-02-28T05:58:37;17.90;;;14.57;;
19179;SDS011;9722;48.754;8.868;2024-02-28T06:01:58;18.50;;;14.10;;
19179;SDS011;9722;48.754;8.868;2024-02-28T06:05:18;16.43;;;14.70;;
19179;SDS011;9722;48.754;8.868;2024-02-28T06:08:39;20.57;;;16.00;;
19179;SDS011;9722;48.754;8.868;2024-02-28T06:12:00;16.47;;;14.60;;
19179;SDS011;9722;48.754;8.868;2024-02-28T06:15:21;15.43;;;13.83;;
19179;SDS011;9722;48.754;8.868;2024-02-28T06:18:42;19.03;;;15.00;;
19179;SDS011;9722;48.754;8.868;2024-02-28T06:22:03;17.13;;;14.93;;
19179;SDS011;9722;48.754;8.868;2024-02-28T06:25:23;17.53;;;14.70;;
19179;SDS011;9722;48.754;8.868;2024-02-28T06:28:44;19.83;;;15.27;;
19179;SDS011;9722;48.754;8.868;2024-02-28T06:32:05;16.37;;;14.63;;
19179;SDS011;9722;48.754;8.868;2024-02-28T06:35:26;20.03;;;15.27;;
19179;SDS011;9722;48.754;8.868;2024-02-28T06:38:47;16.90;;;15.13;;
19179;SDS011;9722;48.754;8.868;2024-02-28T06:42:08;17.53;;;15.53;;
19179;SDS011;9722;48.754;8.868;2024-02-28T06:45:28;16.33;;;14.10;;
19179;SDS011;9722;48.754;8.868;2024-02-28T06:48:48;17.67;;;14.30;;
19179;SDS011;9722;48.754;8.868;2024-02-28T06:52:09;17.20;;;14.27;;
19179;SDS011;9722;48.754;8.868;2024-02-28T06:55:30;23.00;;;16.43;;
19179;SDS011;9722;48.754;8.868;2024-02-28T06:58:50;22.27;;;15.40;;
19179;SDS011;9722;48.754;8.868;2024-02-28T07:02:11;16.73;;;14.43;;
19179;SDS011;9722;48.754;8.868;2024-02-28T07:05:31;19.30;;;14.70;;
19179;SDS011;9722;48.754;8.868;2024-02-28T07:08:53;16.80;;;13.87;;
19179;SDS011;9722;48.754;8.868;2024-02-28T07:12:13;17.07;;;14.80;;
19179;SDS011;9722;48.754;8.868;2024-02-28T07:15:34;18.90;;;13.67;;
19179;SDS011;9722;48.754;8.868;2024-02-28T07:18:54;15.23;;;13.83;;
19179;SDS011;9722;48.754;8.868;2024-02-28T07:22:15;18.83;;;14.10;;
19179;SDS011;9722;48.754;8.868;2024-02-28T07:25:36;18.07;;;14.90;;
19179;SDS011;9722;48.754;8.868;2024-02-28T07:28:57;16.57;;;14.23;;
19179;SDS011;9722;48.754;8.868;2024-02-28T07:32:17;20.17;;;14.97;;
19179;SDS011;9722;48.754;8.868;2024-02-28T07:35:48;17.63;;;14.03;;
19179;SDS011;9722;48.754;8.868;2024-02-28T07:39:10;16.77;;;14.97;;
19179;SDS011;9722;48.754;8.868;2024-02-28T07:42:32;16.70;;;14.27;;
19179;SDS011;9722;48.754;8.868;2024-02-28T07:45:53;14.80;;;13.30;;
19179;SDS011;9722;48.754;8.868;2024-02-28T07:49:13;16.97;;;14.70;;
19179;SDS011;9722;48.754;8.868;2024-02-28T07:52:34;18.07;;;14.47;;
19179;SDS011;9722;48.754;8.868;2024-02-28T07:55:57;16.77;;;14.60;;
19179;SDS011;9722;48.754;8.868;2024-02-28T07:59:17;15.10;;;13.53;;
19179;SDS011;9722;48.754;8.868;2024-02-28T08:02:38;16.63;;;14.33;;
19179;SDS011;9722;48.754;8.868;2024-02-28T08:05:59;19.73;;;14.40;;
19179;SDS011;9722;48.754;8.868;2024-02-28T08:09:19;16.73;;;13.80;;
19179;SDS011;9722;48.754;8.868;2024-02-28T08:12:40;17.87;;;13.17;;
19179;SDS011;9722;48.754;8.868;2024-02-28T08:16:00;16.27;;;12.93;;
19179;SDS011;9722;48.754;8.868;2024-02-28T08:19:21;14.13;;;12.70;;
19179;SDS011;9722;48.754;8.868;2024-02-28T08:22:41;15.20;;;13.70;;
19179;SDS011;9722;48.754;8.868;2024-02-28T08:26:02;15.20;;;13.70;;
19179;SDS011;9722;48.754;8.868;2024-02-28T08:29:23;19.30;;;12.77;;
19179;SDS011;9722;48.754;8.868;2024-02-28T08:32:44;13.83;;;12.43;;
19179;SDS011;9722;48.754;8.868;2024-02-28T08:36:04;16.30;;;14.37;;
19179;SDS011;9722;48.754;8.868;2024-02-28T08:39:25;15.07;;;13.67;;
19179;SDS011;9722;48.754;8.868;2024-02-28T08:42:45;14.03;;;12.27;;
19179;SDS011;9722;48.754;8.868;2024-02-28T08:46:06;13.27;;;11.97;;
19179;SDS011;9722;48.754;8.868;2024-02-28T08:49:26;13.57;;;11.53;;
19179;SDS011;9722;48.754;8.868;2024-02-28T08:52:47;12.53;;;11.33;;
19179;SDS011;9722;48.754;8.868;2024-02-28T08:56:08;12.60;;;10.67;;
19179;SDS011;9722;48.754;8.868;2024-02-28T08:59:28;13.93;;;11.27;;
19179;SDS011;9722;48.754;8.868;2024-02-28T09:02:49;12.27;;;11.00;;
19179;SDS011;9722;48.754;8.868;2024-02-28T09:06:09;12.53;;;10.67;;
19179;SDS011;9722;48.754;8.868;2024-02-28T09:09:30;12.73;;;11.37;;
19179;SDS011;9722;48.754;8.868;2024-02-28T09:12:53;12.10;;;10.93;;
19179;SDS011;9722;48.754;8.868;2024-02-28T09:16:14;12.57;;;10.93;;
19179;SDS011;9722;48.754;8.868;2024-02-28T09:19:35;12.33;;;11.07;;
19179;SDS011;9722;48.754;8.868;2024-02-28T09:22:55;10.10;;;9.03;;
19179;SDS011;9722;48.754;8.868;2024-02-28T09:26:16;10.53;;;9.53;;
19179;SDS011;9722;48.754;8.868;2024-02-28T09:29:36;14.80;;;13.27;;
19179;SDS011;9722;48.754;8.868;2024-02-28T09:32:58;15.27;;;13.33;;
19179;SDS011;9722;48.754;8.868;2024-02-28T09:36:18;16.13;;;13.57;;
19179;SDS011;9722;48.754;8.868;2024-02-28T09:39:39;16.90;;;14.20;;
19179;SDS011;9722;48.754;8.868;2024-02-28T09:43:00;22.17;;;16.93;;
19179;SDS011;9722;48.754;8.868;2024-02-28T09:46:23;15.20;;;13.60;;
19179;SDS011;9722;48.754;8.868;2024-02-28T09:49:44;15.33;;;13.70;;
19179;SDS011;9722;48.754;8.868;2024-02-28T09:53:09;14.93;;;13.00;;
19179;SDS011;9722;48.754;8.868;2024-02-28T09:56:33;14.37;;;12.20;;
19179;SDS011;9722;48.754;8.868;2024-02-28T09:59:57;14.93;;;12.20;;
19179;SDS011;9722;48.754;8.868;2024-02-28T10:03:19;12.87;;;11.57;;
19179;SDS011;9722;48.754;8.868;2024-02-28T10:06:40;13.63;;;12.20;;
19179;SDS011;9722;48.754;8.868;2024-02-28T10:10:01;13.80;;;11.67;;
19179;SDS011;9722;48.754;8.868;2024-02-28T10:13:21;13.77;;;12.47;;
19179;SDS011;9722;48.754;8.868;2024-02-28T10:16:42;11.97;;;10.70;;
19179;SDS011;9722;48.754;8.868;2024-02-28T10:20:03;15.97;;;13.47;;
19179;SDS011;9722;48.754;8.868;2024-02-28T10:23:26;11.43;;;10.43;;
19179;SDS011;9722;48.754;8.868;2024-02-28T10:26:47;12.57;;;11.37;;
19179;SDS011;9722;48.754;8.868;2024-02-28T10:30:18;11.30;;;10.30;;
19179;SDS011;9722;48.754;8.868;2024-02-28T10:33:41;11.83;;;10.63;;
19179;SDS011;9722;48.754;8.868;2024-02-28T10:37:01;12.30;;;11.10;;
19179;SDS011;9722;48.754;8.868;2024-02-28T10:40:24;11.50;;;9.87;;
19179;SDS011;9722;48.754;8.868;2024-02-28T10:43:45;12.53;;;10.80;;
19179;SDS011;9722;48.754;8.868;2024-02-28T10:47:08;11.73;;;10.63;;
19179;SDS011;9722;48.754;8.868;2024-02-28T10:50:29;10.70;;;9.80;;
19179;SDS011;9722;48.754;8.868;2024-02-28T10:53:50;10.63;;;9.63;;
19179;SDS011;9722;48.754;8.868;2024-02-28T10:57:32;11.00;;;10.00;;
19179;SDS011;9722;48.754;8.868;2024-02-28T11:00:54;11.03;;;9.97;;
19179;SDS011;9722;48.754;8.868;2024-02-28T11:04:15;10.23;;;9.37;;
19179;SDS011;9722;48.754;8.868;2024-02-28T11:07:40;9.77;;;8.87;;
19179;SDS011;9722;48.754;8.868;2024-02-28T11:11:02;9.67;;;8.80;;
19179;SDS011;9722;48.754;8.868;2024-02-28T11:14:24;9.93;;;8.90;;
19179;SDS011;9722;48.754;8.868;2024-02-28T11:17:46;9.87;;;8.87;;
19179;SDS011;9722;48.754;8.868;2024-02-28T11:21:14;9.87;;;8.97;;
19179;SDS011;9722;48.754;8.868;2024-02-28T11:24:36;9.60;;;8.73;;
19179;SDS011;9722;48.754;8.868;2024-02-28T11:27:56;9.47;;;8.57;;
19179;SDS011;9722;48.754;8.868;2024-02-28T11:31:17;10.53;;;9.53;;
19179;SDS011;9722;48.754;8.868;2024-02-28T11:34:38;10.10;;;9.20;;
19179;SDS011;9722;48.754;8.868;2024-02-28T11:38:00;11.23;;;10.03;;
19179;SDS011;9722;48.754;8.868;2024-02-28T11:41:27;12.00;;;10.70;;
19179;SDS011;9722;48.754;8.868;2024-02-28T11:44:54;10.17;;;9.20;;
19179;SDS011;9722;48.754;8.868;2024-02-28T11:48:16;11.33;;;10.33;;
19179;SDS011;9722;48.754;8.868;2024-02-28T11:51:37;10.73;;;9.73;;
19179;SDS011;9722;48.754;8.868;2024-02-28T11:54:57;11.63;;;10.53;;
19179;SDS011;9722;48.754;8.868;2024-02-28T11:58:18;11.17;;;9.97;;
19179;SDS011;9722;48.754;8.868;2024-02-28T12:01:42;11.00;;;10.00;;
19179;SDS011;9722;48.754;8.868;2024-02-28T12:05:06;11.73;;;10.60;;
19179;SDS011;9722;48.754;8.868;2024-02-28T12:08:28;10.70;;;9.60;;
19179;SDS011;9722;48.754;8.868;2024-02-28T12:11:48;10.83;;;9.73;;
19179;SDS011;9722;48.754;8.868;2024-02-28T12:15:09;10.23;;;9.33;;
19179;SDS011;9722;48.754;8.868;2024-02-28T12:18:30;11.53;;;9.73;;
19179;SDS011;9722;48.754;8.868;2024-02-28T12:21:50;10.33;;;9.27;;
19179;SDS011;9722;48.754;8.868;2024-02-28T12:25:11;10.97;;;9.87;;
19179;SDS011;9722;48.754;8.868;2024-02-28T12:28:32;10.73;;;9.53;;
19179;SDS011;9722;48.754;8.868;2024-02-28T12:31:52;11.43;;;10.33;;
19179;SDS011;9722;48.754;8.868;2024-02-28T12:35:13;12.23;;;10.37;;
19179;SDS011;9722;48.754;8.868;2024-02-28T12:38:33;11.97;;;10.20;;
19179;SDS011;9722;48.754;8.868;2024-02-28T12:41:54;12.50;;;10.53;;
19179;SDS011;9722;48.754;8.868;2024-02-28T12:45:14;12.00;;;10.90;;
19179;SDS011;9722;48.754;8.868;2024-02-28T12:48:39;14.37;;;11.00;;
19179;SDS011;9722;48.754;8.868;2024-02-28T12:52:04;11.70;;;10.60;;
19179;SDS011;9722;48.754;8.868;2024-02-28T12:55:24;10.93;;;9.83;;
19179;SDS011;9722;48.754;8.868;2024-02-28T12:58:45;11.30;;;10.30;;
19179;SDS011;9722;48.754;8.868;2024-02-28T13:02:06;12.40;;;10.80;;
19179;SDS011;9722;48.754;8.868;2024-02-28T13:05:26;11.20;;;10.20;;
19179;SDS011;9722;48.754;8.868;2024-02-28T13:08:47;11.43;;;10.33;;
19179;SDS011;9722;48.754;8.868;2024-02-28T13:12:11;10.63;;;9.63;;
19179;SDS011;9722;48.754;8.868;2024-02-28T13:15:32;11.73;;;10.10;;
19179;SDS011;9722;48.754;8.868;2024-02-28T13:18:52;11.30;;;10.20;;
19179;SDS011;9722;48.754;8.868;2024-02-28T13:22:13;11.53;;;10.37;;
19179;SDS011;9722;48.754;8.868;2024-02-28T13:25:33;11.43;;;10.43;;
19179;SDS011;9722;48.754;8.868;2024-02-28T13:28:54;10.80;;;9.70;;
19179;SDS011;9722;48.754;8.868;2024-02-28T13:32:14;11.33;;;10.17;;
19179;SDS011;9722;48.754;8.868;2024-02-28T13:35:35;10.83;;;9.73;;
19179;SDS011;9722;48.754;8.868;2024-02-28T13:38:58;10.47;;;9.57;;
19179;SDS011;9722;48.754;8.868;2024-02-28T13:42:18;10.37;;;9.43;;
19179;SDS011;9722;48.754;8.868;2024-02-28T13:45:48;11.20;;;10.10;;
19179;SDS011;9722;48.754;8.868;2024-02-28T13:49:11;10.00;;;9.10;;
19179;SDS011;9722;48.754;8.868;2024-02-28T13:52:33;10.17;;;9.30;;
19179;SDS011;9722;48.754;8.868;2024-02-28T13:55:53;9.80;;;8.90;;
19179;SDS011;9722;48.754;8.868;2024-02-28T13:59:14;10.67;;;9.57;;
19179;SDS011;9722;48.754;8.868;2024-02-28T14:02:35;10.17;;;9.20;;
19179;SDS011;9722;48.754;8.868;2024-02-28T14:05:55;10.27;;;9.27;;
19179;SDS011;9722;48.754;8.868;2024-02-28T14:09:16;11.03;;;10.00;;
19179;SDS011;9722;48.754;8.868;2024-02-28T14:12:37;9.23;;;8.43;;
19179;SDS011;9722;48.754;8.868;2024-02-28T14:15:58;12.50;;;9.73;;
19179;SDS011;9722;48.754;8.868;2024-02-28T14:19:19;10.00;;;9.07;;
19179;SDS011;9722;48.754;8.868;2024-02-28T14:22:39;10.53;;;9.17;;
19179;SDS011;9722;48.754;8.868;2024-02-28T14:26:02;11.77;;;9.73;;
19179;SDS011;9722;48.754;8.868;2024-02-28T14:29:22;10.80;;;9.80;;
19179;SDS011;9722;48.754;8.868;2024-02-28T14:32:43;9.70;;;8.80;;
19179;SDS011;9722;48.754;8.868;2024-02-28T14:36:04;10.03;;;9.03;;
19179;SDS011;9722;48.754;8.868;2024-02-28T14:39:25;9.87;;;8.87;;
19179;SDS011;9722;48.754;8.868;2024-02-28T14:42:45;9.80;;;8.77;;
19179;SDS011;9722;48.754;8.868;2024-02-28T14:46:06;11.10;;;10.00;;
19179;SDS011;9722;48.754;8.868;2024-02-28T14:49:28;9.70;;;8.80;;
19179;SDS011;9722;48.754;8.868;2024-02-28T14:52:49;10.17;;;9.17;;
19179;SDS011;9722;48.754;8.868;2024-02-28T14:56:09;10.47;;;9.40;;
19179;SDS011;9722;48.754;8.868;2024-02-28T14:59:30;9.87;;;8.97;;
19179;SDS011;9722;48.754;8.868;2024-02-28T15:02:50;10.13;;;9.13;;
19179;SDS011;9722;48.754;8.868;2024-02-28T15:06:13;11.60;;;8.50;;
19179;SDS011;9722;48.754;8.868;2024-02-28T15:09:34;10.03;;;9.03;;
19179;SDS011;9722;48.754;8.868;2024-02-28T15:12:55;10.13;;;9.13;;
19179;SDS011;9722;48.754;8.868;2024-02-28T15:16:15;9.53;;;8.53;;
19179;SDS011;9722;48.754;8.868;2024-02-28T15:19:36;10.87;;;9.73;;
19179;SDS011;9722;48.754;8.868;2024-02-28T15:22:57;10.30;;;9.07;;
19179;SDS011;9722;48.754;8.868;2024-02-28T15:26:19;10.77;;;9.77;;
19179;SDS011;9722;48.754;8.868;2024-02-28T15:29:39;10.57;;;9.50;;
19179;SDS011;9722;48.754;8.868;2024-02-28T15:33:00;12.97;;;9.20;;
19179;SDS011;9722;48.754;8.868;2024-02-28T15:36:20;11.23;;;9.63;;
19179;SDS011;9722;48.754;8.868;2024-02-28T15:39:41;10.17;;;9.07;;
19179;SDS011;9722;48.754;8.868;2024-02-28T15:43:02;12.10;;;9.57;;
19179;SDS011;9722;48.754;8.868;2024-02-28T15:46:23;11.30;;;10.13;;
19179;SDS011;9722;48.754;8.868;2024-02-28T15:49:43;11.67;;;10.27;;
19179;SDS011;9722;48.754;8.868;2024-02-28T15:53:04;10.33;;;9.27;;
19179;SDS011;9722;48.754;8.868;2024-02-28T15:56:25;10.63;;;9.50;;
19179;SDS011;9722;48.754;8.868;2024-02-28T15:59:46;10.53;;;9.53;;
19179;SDS011;9722;48.754;8.868;2024-02-28T16:03:06;10.43;;;9.43;;
19179;SDS011;9722;48.754;8.868;2024-02-28T16:06:27;9.93;;;8.93;;
19179;SDS011;9722;48.754;8.868;2024-02-28T16:09:49;10.30;;;9.27;;
19179;SDS011;9722;48.754;8.868;2024-02-28T16:13:09;11.80;;;9.53;;
19179;SDS011;9722;48.754;8.868;2024-02-28T16:16:31;11.67;;;10.53;;
19179;SDS011;9722;48.754;8.868;2024-02-28T16:19:52;10.60;;;9.50;;
19179;SDS011;9722;48.754;8.868;2024-02-28T16:23:12;11.67;;;10.20;;
19179;SDS011;9722;48.754;8.868;2024-02-28T16:26:33;11.27;;;9.60;;
19179;SDS011;9722;48.754;8.868;2024-02-28T16:29:53;12.13;;;10.20;;
19179;SDS011;9722;48.754;8.868;2024-02-28T16:33:14;11.63;;;9.93;;
19179;SDS011;9722;48.754;8.868;2024-02-28T16:36:37;11.83;;;10.20;;
19179;SDS011;9722;48.754;8.868;2024-02-28T16:39:57;10.93;;;9.83;;
19179;SDS011;9722;48.754;8.868;2024-02-28T16:43:18;11.93;;;10.80;;
19179;SDS011;9722;48.754;8.868;2024-02-28T16:46:38;11.67;;;10.47;;
19179;SDS011;9722;48.754;8.868;2024-02-28T16:49:59;10.70;;;9.60;;
19179;SDS011;9722;48.754;8.868;2024-02-28T16:53:19;10.23;;;9.20;;
19179;SDS011;9722;48.754;8.868;2024-02-28T16:56:40;13.03;;;10.83;;
19179;SDS011;9722;48.754;8.868;2024-02-28T17:00:00;13.43;;;11.23;;
19179;SDS011;9722;48.754;8.868;2024-02-28T17:03:21;12.57;;;11.30;;
19179;SDS011;9722;48.754;8.868;2024-02-28T17:06:41;12.93;;;10.80;;
19179;SDS011;9722;48.754;8.868;2024-02-28T17:10:02;11.47;;;10.20;;
19179;SDS011;9722;48.754;8.868;2024-02-28T17:13:23;11.67;;;10.40;;
19179;SDS011;9722;48.754;8.868;2024-02-28T17:16:43;12.27;;;11.07;;
19179;SDS011;9722;48.754;8.868;2024-02-28T17:20:04;13.90;;;11.27;;
19179;SDS011;9722;48.754;8.868;2024-02-28T17:23:27;15.63;;;10.80;;
19179;SDS011;9722;48.754;8.868;2024-02-28T17:26:47;12.70;;;11.37;;
19179;SDS011;9722;48.754;8.868;2024-02-28T17:30:08;14.67;;;11.50;;
19179;SDS011;9722;48.754;8.868;2024-02-28T17:33:29;19.33;;;15.87;;
19179;SDS011;9722;48.754;8.868;2024-02-28T17:36:49;17.77;;;15.53;;
19179;SDS011;9722;48.754;8.868;2024-02-28T17:40:11;18.47;;;15.20;;
19179;SDS011;9722;48.754;8.868;2024-02-28T17:43:34;17.27;;;15.33;;
19179;SDS011;9722;48.754;8.868;2024-02-28T17:46:55;18.47;;;15.07;;
19179;SDS011;9722;48.754;8.868;2024-02-28T17:50:16;15.50;;;12.97;;
19179;SDS011;9722;48.754;8.868;2024-02-28T17:53:36;14.67;;;13.10;;
19179;SDS011;9722;48.754;8.868;2024-02-28T17:56:57;15.27;;;12.77;;
19179;SDS011;9722;48.754;8.868;2024-02-28T18:00:17;19.20;;;14.13;;
19179;SDS011;9722;48.754;8.868;2024-02-28T18:03:41;20.87;;;14.77;;
19179;SDS011;9722;48.754;8.868;2024-02-28T18:07:02;20.47;;;15.63;;
19179;SDS011;9722;48.754;8.868;2024-02-28T18:10:22;20.20;;;16.63;;
19179;SDS011;9722;48.754;8.868;2024-02-28T18:13:43;21.27;;;15.83;;
19179;SDS011;9722;48.754;8.868;2024-02-28T18:17:03;18.23;;;14.47;;
19179;SDS011;9722;48.754;8.868;2024-02-28T18:20:24;20.90;;;16.07;;
19179;SDS011;9722;48.754;8.868;2024-02-28T18:23:44;27.60;;;15.50;;
19179;SDS011;9722;48.754;8.868;2024-02-28T18:27:05;18.77;;;14.87;;
19179;SDS011;9722;48.754;8.868;2024-02-28T18:30:29;18.37;;;15.57;;
19179;SDS011;9722;48.754;8.868;2024-02-28T18:33:49;17.53;;;14.03;;
19179;SDS011;9722;48.754;8.868;2024-02-28T18:37:10;14.03;;;12.47;;
19179;SDS011;9722;48.754;8.868;2024-02-28T18:40:30;14.77;;;11.97;;
19179;SDS011;9722;48.754;8.868;2024-02-28T18:43:51;14.70;;;11.47;;
19179;SDS011;9722;48.754;8.868;2024-02-28T18:47:12;22.93;;;16.20;;
19179;SDS011;9722;48.754;8.868;2024-02-28T18:50:32;20.10;;;17.50;;
19179;SDS011;9722;48.754;8.868;2024-02-28T18:53:53;24.77;;;17.17;;
19179;SDS011;9722;48.754;8.868;2024-02-28T18:57:13;19.13;;;14.33;;
19179;SDS011;9722;48.754;8.868;2024-02-28T19:00:34;23.97;;;15.90;;
19179;SDS011;9722;48.754;8.868;2024-02-28T19:03:54;21.10;;;14.60;;
19179;SDS011;9722;48.754;8.868;2024-02-28T19:07:15;21.23;;;14.80;;
19179;SDS011;9722;48.754;8.868;2024-02-28T19:10:36;23.50;;;15.90;;
19179;SDS011;9722;48.754;8.868;2024-02-28T19:13:56;21.80;;;14.77;;
19179;SDS011;9722;48.754;8.868;2024-02-28T19:17:17;15.67;;;12.10;;
19179;SDS011;9722;48.754;8.868;2024-02-28T19:20:37;16.13;;;12.17;;
19179;SDS011;9722;48.754;8.868;2024-02-28T19:23:58;18.47;;;11.53;;
19179;SDS011;9722;48.754;8.868;2024-02-28T19:27:19;14.27;;;12.70;;
19179;SDS011;9722;48.754;8.868;2024-02-28T19:30:40;19.60;;;13.20;;
19179;SDS011;9722;48.754;8.868;2024-02-28T19:34:01;24.00;;;15.07;;
19179;SDS011;9722;48.754;8.868;2024-02-28T19:37:21;46.37;;;21.77;;
19179;SDS011;9722;48.754;8.868;2024-02-28T19:40:42;68.70;;;29.20;;
19179;SDS011;9722;48.754;8.868;2024-02-28T19:44:03;37.37;;;19.27;;
19179;SDS011;9722;48.754;8.868;2024-02-28T19:47:24;39.27;;;19.37;;
19179;SDS011;9722;48.754;8.868;2024-02-28T19:50:44;21.23;;;13.23;;
19179;SDS011;9722;48.754;8.868;2024-02-28T19:54:05;22.23;;;15.83;;
19179;SDS011;9722;48.754;8.868;2024-02-28T19:57:26;20.87;;;14.63;;